»·PEaware :: UAL1928 KSJC-KLAX

UAL1928 :: KSJC-KLAX

FLIGHT INFORMATION

Flight Status: Arrived
Operator:
United Airlines
More flights by this operator :: More flights under this callsign
Pilot: Chris C. (10181)
Aircraft: BOEING 737-200
(B732)
More flights by this aircraft type
Origin: KSJC Mineta San Jose Intl
United States
Destination: KLAX Los Angeles Intl
United States
More flights between these airports :: More routes between these airports
Route: + SJC V485 HENCE AVE SADDE8
File this flight plan on PilotEdge
Remarks: Happy New Year!
Altitude:
(Current/Filed)
27,000ft
Speed:
(Current/Filed)
470kts
Departed: 29-Dec-19 04:11 PM
Arrived: 29-Dec-19 05:06 PM
Distance/Time
Traveled:
268nm/0:55
Distance/Time
To Go:
Arrived

Flight Plot

Page will automatically refresh every two minutes.

Flight plan parsing failed; only flown route is shown


Map Options




Map Legend


Flown Route
Filed Route
Departure Airport
Arrival Airport
Navaid (VOR, NDB)
Fix

Horizontal Profiles

Position Reports

Time Latitude Longitude Heading Altitude Ground
Speed
29-Dec-19 14:57 37.366905 -121.927387 48 49ft 0kts
29-Dec-19 14:58 37.366905 -121.927387 48 49ft 0kts
29-Dec-19 14:59 37.366905 -121.927387 48 49ft 0kts
29-Dec-19 15:00 37.366905 -121.927387 48 49ft 0kts
29-Dec-19 15:01 37.366905 -121.927387 48 49ft 0kts
29-Dec-19 15:02 37.366905 -121.927387 48 49ft 0kts
29-Dec-19 15:03 37.366905 -121.927387 48 49ft 0kts
29-Dec-19 15:04 37.366905 -121.927387 48 49ft 0kts
29-Dec-19 15:05 37.366905 -121.927387 48 49ft 0kts
29-Dec-19 15:06 37.366905 -121.927387 48 49ft 0kts
29-Dec-19 15:07 37.366905 -121.927387 48 49ft 0kts
29-Dec-19 15:08 37.366905 -121.927387 48 49ft 0kts
29-Dec-19 15:09 37.366905 -121.927387 48 49ft 0kts
29-Dec-19 15:10 37.366905 -121.927387 48 49ft 0kts
29-Dec-19 15:11 37.366905 -121.927387 48 49ft 0kts
29-Dec-19 15:12 37.366905 -121.927387 48 49ft 0kts
29-Dec-19 15:13 37.366905 -121.927387 48 49ft 0kts
29-Dec-19 15:14 37.366905 -121.927387 48 49ft 0kts
29-Dec-19 15:15 37.366905 -121.927387 48 49ft 0kts
29-Dec-19 15:16 37.366905 -121.927387 48 49ft 0kts
29-Dec-19 15:17 37.366905 -121.927387 48 49ft 0kts
29-Dec-19 15:18 37.366905 -121.927387 48 49ft 0kts
29-Dec-19 15:19 37.366905 -121.927387 48 49ft 0kts
29-Dec-19 15:20 37.366905 -121.927387 48 49ft 0kts
29-Dec-19 15:21 37.366905 -121.927387 48 49ft 0kts
29-Dec-19 15:22 37.366905 -121.927387 48 49ft 0kts
29-Dec-19 15:23 37.366905 -121.927387 48 49ft 0kts
29-Dec-19 15:24 37.366905 -121.927387 48 49ft 0kts
29-Dec-19 15:25 37.366905 -121.927387 48 49ft 0kts
29-Dec-19 15:26 37.366905 -121.927387 48 49ft 0kts
29-Dec-19 15:27 37.366905 -121.927387 48 49ft 0kts
29-Dec-19 15:28 37.366905 -121.927387 48 49ft 0kts
29-Dec-19 15:29 37.366905 -121.927387 48 49ft 0kts
29-Dec-19 15:30 37.366905 -121.927387 48 49ft 0kts
29-Dec-19 15:31 37.366905 -121.927387 48 49ft 0kts
29-Dec-19 15:32 37.366905 -121.927387 48 49ft 0kts
29-Dec-19 15:33 37.366905 -121.927387 48 49ft 0kts
29-Dec-19 15:34 37.366905 -121.927387 48 49ft 0kts
29-Dec-19 15:35 37.366905 -121.927387 48 49ft 0kts
29-Dec-19 15:36 37.366905 -121.927387 48 49ft 0kts
29-Dec-19 15:37 37.366905 -121.927387 48 49ft 0kts
29-Dec-19 15:38 37.366905 -121.927387 48 49ft 0kts
29-Dec-19 15:39 37.366905 -121.927387 48 49ft 0kts
29-Dec-19 15:40 37.366905 -121.927387 48 49ft 0kts
29-Dec-19 15:41 37.366905 -121.927387 48 49ft 0kts
29-Dec-19 15:42 37.366905 -121.927387 48 49ft 0kts
29-Dec-19 15:43 37.366905 -121.927387 48 49ft 0kts
29-Dec-19 15:44 37.366905 -121.927387 48 49ft 0kts
29-Dec-19 15:45 37.366905 -121.927387 48 49ft 0kts
29-Dec-19 15:46 37.366905 -121.927387 48 49ft 0kts
29-Dec-19 15:47 37.366905 -121.927387 48 49ft 0kts
29-Dec-19 15:48 37.366905 -121.927387 48 49ft 0kts
29-Dec-19 15:49 37.366905 -121.927387 48 49ft 0kts
29-Dec-19 15:50 37.366905 -121.927387 48 49ft 0kts
29-Dec-19 15:51 37.366905 -121.927387 48 49ft 0kts
29-Dec-19 15:52 37.366905 -121.927387 48 49ft 0kts
29-Dec-19 15:53 37.366905 -121.927387 48 49ft 0kts
29-Dec-19 15:54 37.366905 -121.927387 48 49ft 0kts
29-Dec-19 15:55 37.366905 -121.927387 48 49ft 0kts
29-Dec-19 15:56 37.366905 -121.927387 48 49ft 0kts
29-Dec-19 15:57 37.366905 -121.927387 48 49ft 0kts
29-Dec-19 15:58 37.366590 -121.927810 29 51ft 2kts
29-Dec-19 15:59 37.366088 -121.927762 318 52ft 1kts
29-Dec-19 16:00 37.366053 -121.927721 318 52ft 0kts
29-Dec-19 16:01 37.366053 -121.927721 318 52ft 0kts
29-Dec-19 16:03 37.366053 -121.927721 318 52ft 0kts
29-Dec-19 16:04 37.366053 -121.927721 318 52ft 0kts
29-Dec-19 16:05 37.366054 -121.927721 318 52ft 0kts
29-Dec-19 16:06 37.367718 -121.929571 320 50ft 16kts
29-Dec-19 16:07 37.371682 -121.933934 319 45ft 19kts
29-Dec-19 16:08 37.374215 -121.937709 317 45ft 13kts
29-Dec-19 16:09 37.375242 -121.938933 290 45ft 0kts
29-Dec-19 16:10 37.374670 -121.939813 138 45ft 0kts
29-Dec-19 16:11 37.358364 -121.922161 141 471ft 164kts
29-Dec-19 16:12 37.318260 -121.880192 139 2839ft 229kts
29-Dec-19 16:13 37.261647 -121.825145 151 6513ft 247kts
29-Dec-19 16:14 37.202323 -121.772899 140 8868ft 271kts
29-Dec-19 16:15 37.143697 -121.706392 141 10726ft 304kts
29-Dec-19 16:16 37.075192 -121.631826 142 12211ft 340kts
29-Dec-19 16:17 37.000073 -121.553709 146 14012ft 356kts
29-Dec-19 16:18 36.919805 -121.478254 146 15834ft 364kts
29-Dec-19 16:19 36.837550 -121.401517 147 17639ft 367kts
29-Dec-19 16:19 36.775007 -121.327698 138 19052ft 372kts
29-Dec-19 16:21 36.690962 -121.218582 138 20865ft 371kts
29-Dec-19 16:22 36.616601 -121.121961 138 21448ft 396kts
29-Dec-19 16:23 36.537741 -121.020029 137 22233ft 410kts
29-Dec-19 16:23 36.471189 -120.934074 137 22944ft 416kts
29-Dec-19 16:25 36.375947 -120.812807 139 23966ft 421kts
29-Dec-19 16:26 36.291697 -120.710060 139 24828ft 423kts
29-Dec-19 16:26 36.221289 -120.623845 139 25520ft 424kts
29-Dec-19 16:27 36.136549 -120.520777 142 26307ft 424kts
29-Dec-19 16:28 36.046340 -120.427246 146 27042ft 422kts
29-Dec-19 16:29 35.953189 -120.335041 144 27157ft 438kts
29-Dec-19 16:30 35.865801 -120.241145 143 27155ft 444kts
29-Dec-19 16:31 35.771870 -120.139952 143 27154ft 448kts
29-Dec-19 16:32 35.682974 -120.030715 137 27155ft 454kts
29-Dec-19 16:33 35.596042 -119.916501 137 27150ft 457kts
29-Dec-19 16:34 35.498944 -119.819431 153 27143ft 449kts
29-Dec-19 16:35 35.392147 -119.738965 153 27136ft 451kts
29-Dec-19 16:36 35.285250 -119.658611 153 27145ft 452kts
29-Dec-19 16:37 35.180873 -119.571719 147 27144ft 457kts
29-Dec-19 16:38 35.079372 -119.476939 147 27136ft 458kts
29-Dec-19 16:39 34.977737 -119.381731 147 27144ft 460kts
29-Dec-19 16:40 34.893184 -119.300799 147 26463ft 433kts
29-Dec-19 16:41 34.812311 -119.222150 147 25141ft 410kts
29-Dec-19 16:42 34.724624 -119.136720 149 24177ft 389kts
29-Dec-19 16:43 34.633952 -119.065487 154 24134ft 370kts
29-Dec-19 16:44 34.542212 -119.003378 157 21093ft 387kts
29-Dec-19 16:45 34.443521 -118.943088 157 17096ft 390kts
29-Dec-19 16:46 34.347604 -118.888117 159 13247ft 364kts
29-Dec-19 16:47 34.257865 -118.841046 156 12017ft 336kts
29-Dec-19 16:48 34.173814 -118.798165 160 12008ft 324kts
29-Dec-19 16:49 34.088359 -118.758366 160 10635ft 330kts
29-Dec-19 16:50 34.014694 -118.704704 111 8063ft 306kts
29-Dec-19 16:51 34.013211 -118.608769 85 6997ft 267kts
29-Dec-19 16:52 34.019639 -118.517633 83 7003ft 277kts
29-Dec-19 16:53 34.004160 -118.427384 111 6996ft 278kts
29-Dec-19 16:54 33.977722 -118.345694 111 6078ft 253kts
29-Dec-19 16:55 33.950811 -118.270899 112 5013ft 225kts
29-Dec-19 16:56 33.926253 -118.204092 112 4998ft 218kts
29-Dec-19 16:57 33.903952 -118.132383 89 5002ft 230kts
29-Dec-19 16:58 33.925942 -118.088028 330 4467ft 179kts
29-Dec-19 16:59 33.947998 -118.140581 291 3476ft 149kts
29-Dec-19 17:00 33.955383 -118.191051 270 3365ft 154kts
29-Dec-19 17:01 33.950672 -118.243760 265 2533ft 143kts
29-Dec-19 17:02 33.945717 -118.291919 264 1676ft 142kts
29-Dec-19 17:03 33.941622 -118.338359 265 830ft 137kts
29-Dec-19 17:04 33.937337 -118.382646 264 141ft 128kts
29-Dec-19 17:05 33.935766 -118.402032 285 121ft 15kts
29-Dec-19 17:06 33.936118 -118.405595 263 126ft 13kts
29-Dec-19 17:07 33.937372 -118.409052 352 128ft 12kts
29-Dec-19 17:08 33.938930 -118.406517 82 126ft 13kts
29-Dec-19 17:09 33.939480 -118.401250 82 120ft 18kts
29-Dec-19 17:10 33.940975 -118.398285 352 116ft 0kts
29-Dec-19 17:11 33.941334 -118.397671 83 115ft 0kts

Navigation Log

Ident Type
Flight plan parsing failed, navigation log unavailable